44.4°F
Current conditions from King Hill
Updated every 5 minutes
 
  Saturday April 19, 2014

Station Historical Data
Daily Summary for May 25, 2012 Units:  Both    English   Metric
« Previous Day
Next Day »
Daily Weekly Monthly Yearly Custom
  High: Low: Average:
Temperature: 75.6 °F /  24.2 °C 61.9 °F /  16.6 °C 69.6 °F /  20.9 °C
Dew Point: 65.9 °F /  18.8 °C 59.0 °F /  15 °C 62.6 °F /  17 °C
Humidity: 92% 70% 79%
Wind Speed: 11.0mph /  17.7km/h - 6.1mph /  9.8km/h
Wind Gust: 26.0mph /  41.8km/h - -
Wind- - SSW
Pressure: 30.09 in /  1018.8 hPa 29.91 in /  1012.8 hPa -
Precipitation: 0.00 in /  0 mm    
Historical Graphs
 
 
Tabular Data for May 25, 2012
Time Temperature Dew Point Pressure Wind Wind Speed Wind Gust Humidity Daily Rainfall
00:04 65.5 °F /  18.6 °C 60.5 °F /  15.8 °C 30.08in /  1018.5hPa Calm   1.0mph /  1.6km/h 84% 0.00in /  0mm
00:09 65.6 °F /  18.7 °C 60.6 °F /  15.9 °C 30.08in /  1018.5hPa Calm   4.0mph /  6.4km/h 84% 0.00in /  0mm
00:14 65.6 °F /  18.7 °C 60.6 °F /  15.9 °C 30.08in /  1018.5hPa Calm   4.0mph /  6.4km/h 84% 0.00in /  0mm
00:19 65.4 °F /  18.6 °C 60.4 °F /  15.8 °C 30.08in /  1018.5hPa Calm   1.0mph /  1.6km/h 84% 0.00in /  0mm
00:29 65.2 °F /  18.4 °C 60.2 °F /  15.7 °C 30.08in /  1018.5hPa Calm   3.0mph /  4.8km/h 84% 0.00in /  0mm
00:34 64.9 °F /  18.3 °C 60.0 °F /  15.6 °C 30.08in /  1018.5hPa Calm   1.0mph /  1.6km/h 84% 0.00in /  0mm
00:44 64.7 °F /  18.2 °C 59.8 °F /  15.4 °C 30.08in /  1018.5hPa SSE 1.0mph /  1.6km/h 7.0mph /  11.3km/h 84% 0.00in /  0mm
00:49 64.9 °F /  18.3 °C 60.0 °F /  15.6 °C 30.08in /  1018.5hPa Calm   4.0mph /  6.4km/h 84% 0.00in /  0mm
00:54 64.9 °F /  18.3 °C 60.0 °F /  15.6 °C 30.09in /  1018.8hPa Calm   5.0mph /  8km/h 84% 0.00in /  0mm
00:59 64.8 °F /  18.2 °C 60.2 °F /  15.7 °C 30.09in /  1018.8hPa Calm   5.0mph /  8km/h 85% 0.00in /  0mm
01:04 64.7 °F /  18.2 °C 60.1 °F /  15.6 °C 30.08in /  1018.5hPa Calm   1.0mph /  1.6km/h 85% 0.00in /  0mm
01:09 64.5 °F /  18.1 °C 60.2 °F /  15.7 °C 30.08in /  1018.5hPa SW 1.0mph /  1.6km/h 4.0mph /  6.4km/h 86% 0.00in /  0mm
01:14 64.6 °F /  18.1 °C 60.3 °F /  15.7 °C 30.08in /  1018.5hPa Calm   4.0mph /  6.4km/h 86% 0.00in /  0mm
01:19 64.8 °F /  18.2 °C 60.5 °F /  15.8 °C 30.08in /  1018.5hPa Calm   4.0mph /  6.4km/h 86% 0.00in /  0mm
01:24 64.9 °F /  18.3 °C 60.3 °F /  15.7 °C 30.08in /  1018.5hPa SSW 1.0mph /  1.6km/h 6.0mph /  9.7km/h 85% 0.00in /  0mm
01:29 65.1 °F /  18.4 °C 60.5 °F /  15.8 °C 30.09in /  1018.8hPa Calm   6.0mph /  9.7km/h 85% 0.00in /  0mm
01:34 65.3 °F /  18.5 °C 60.7 °F /  15.9 °C 30.09in /  1018.8hPa Calm   4.0mph /  6.4km/h 85% 0.00in /  0mm
01:39 65.4 °F /  18.6 °C 60.8 °F /  16 °C 30.09in /  1018.8hPa Calm   3.0mph /  4.8km/h 85% 0.00in /  0mm
01:44 65.3 °F /  18.5 °C 60.7 °F /  15.9 °C 30.09in /  1018.8hPa Calm   1.0mph /  1.6km/h 85% 0.00in /  0mm
01:49 65.1 °F /  18.4 °C 60.8 °F /  16 °C 30.09in /  1018.8hPa Calm   1.0mph /  1.6km/h 86% 0.00in /  0mm
01:54 64.9 °F /  18.3 °C 60.6 °F /  15.9 °C 30.09in /  1018.8hPa Calm   1.0mph /  1.6km/h 86% 0.00in /  0mm
01:59 64.7 °F /  18.2 °C 60.4 °F /  15.8 °C 30.09in /  1018.8hPa Calm   1.0mph /  1.6km/h 86% 0.00in /  0mm
02:04 64.5 °F /  18.1 °C 60.5 °F /  15.8 °C 30.09in /  1018.8hPa Calm     87% 0.00in /  0mm
02:09 64.3 °F /  17.9 °C 60.4 °F /  15.8 °C 30.09in /  1018.8hPa Calm   1.0mph /  1.6km/h 87% 0.00in /  0mm
02:14 64.2 °F /  17.9 °C 60.3 °F /  15.7 °C 30.08in /  1018.5hPa Calm   2.0mph /  3.2km/h 87% 0.00in /  0mm
02:19 64.0 °F /  17.8 °C 60.1 °F /  15.6 °C 30.08in /  1018.5hPa Calm   3.0mph /  4.8km/h 87% 0.00in /  0mm
02:24 63.8 °F /  17.7 °C 59.9 °F /  15.5 °C 30.08in /  1018.5hPa Calm   3.0mph /  4.8km/h 87% 0.00in /  0mm
02:29 63.7 °F /  17.6 °C 59.8 °F /  15.4 °C 30.08in /  1018.5hPa Calm   1.0mph /  1.6km/h 87% 0.00in /  0mm
02:34 63.5 °F /  17.5 °C 59.6 °F /  15.3 °C 30.08in /  1018.5hPa Calm   1.0mph /  1.6km/h 87% 0.00in /  0mm
02:44 63.0 °F /  17.2 °C 59.4 °F /  15.2 °C 30.08in /  1018.5hPa Calm   2.0mph /  3.2km/h 88% 0.00in /  0mm
02:49 62.7 °F /  17.1 °C 59.4 °F /  15.2 °C 30.08in /  1018.5hPa Calm     89% 0.00in /  0mm
02:54 62.5 °F /  16.9 °C 59.2 °F /  15.1 °C 30.08in /  1018.5hPa Calm     89% 0.00in /  0mm
02:59 62.3 °F /  16.8 °C 59.0 °F /  15 °C 30.08in /  1018.5hPa Calm     89% 0.00in /  0mm
03:04 62.1 °F /  16.7 °C 59.1 °F /  15.1 °C 30.08in /  1018.5hPa Calm     90% 0.00in /  0mm
03:09 62.1 °F /  16.7 °C 59.1 °F /  15.1 °C 30.08in /  1018.5hPa Calm     90% 0.00in /  0mm
03:14 62.1 °F /  16.7 °C 59.4 °F /  15.2 °C 30.09in /  1018.8hPa Calm     91% 0.00in /  0mm
03:19 61.9 °F /  16.6 °C 59.2 °F /  15.1 °C 30.09in /  1018.8hPa Calm   1.0mph /  1.6km/h 91% 0.00in /  0mm
03:24 61.9 °F /  16.6 °C 59.2 °F /  15.1 °C 30.09in /  1018.8hPa Calm   1.0mph /  1.6km/h 91% 0.00in /  0mm
03:29 62.3 °F /  16.8 °C 59.9 °F /  15.5 °C 30.09in /  1018.8hPa SSW 3.0mph /  4.8km/h 6.0mph /  9.7km/h 92% 0.00in /  0mm
03:34 62.7 °F /  17.1 °C 60.3 °F /  15.7 °C 30.08in /  1018.5hPa Calm   6.0mph /  9.7km/h 92% 0.00in /  0mm
03:44 63.4 °F /  17.4 °C 60.7 °F /  15.9 °C 30.08in /  1018.5hPa SSW 1.0mph /  1.6km/h 5.0mph /  8km/h 91% 0.00in /  0mm
03:49 63.7 °F /  17.6 °C 60.7 °F /  15.9 °C 30.09in /  1018.8hPa Calm   5.0mph /  8km/h 90% 0.00in /  0mm
03:59 64.3 °F /  17.9 °C 60.7 °F /  15.9 °C 30.08in /  1018.5hPa Calm   6.0mph /  9.7km/h 88% 0.00in /  0mm
04:04 64.6 °F /  18.1 °C 61.0 °F /  16.1 °C 30.08in /  1018.5hPa SW 3.0mph /  4.8km/h 9.0mph /  14.5km/h 88% 0.00in /  0mm
04:09 65.0 °F /  18.3 °C 61.0 °F /  16.1 °C 30.09in /  1018.8hPa WSW 3.0mph /  4.8km/h 11.0mph /  17.7km/h 87% 0.00in /  0mm
04:14 65.2 °F /  18.4 °C 60.9 °F /  16.1 °C 30.09in /  1018.8hPa SSW 2.0mph /  3.2km/h 11.0mph /  17.7km/h 86% 0.00in /  0mm
04:19 65.2 °F /  18.4 °C 60.6 °F /  15.9 °C 30.09in /  1018.8hPa SW 6.0mph /  9.7km/h 13.0mph /  20.9km/h 85% 0.00in /  0mm
04:29 65.6 °F /  18.7 °C 61.0 °F /  16.1 °C 30.09in /  1018.8hPa SW 5.0mph /  8km/h 13.0mph /  20.9km/h 85% 0.00in /  0mm
04:34 65.8 °F /  18.8 °C 60.8 °F /  16 °C 30.09in /  1018.8hPa SW 7.0mph /  11.3km/h 13.0mph /  20.9km/h 84% 0.00in /  0mm
04:44 65.8 °F /  18.8 °C 60.5 °F /  15.8 °C 30.09in /  1018.8hPa SW 4.0mph /  6.4km/h 13.0mph /  20.9km/h 83% 0.00in /  0mm
04:49 65.7 °F /  18.7 °C 60.4 °F /  15.8 °C 30.09in /  1018.8hPa SSW 6.0mph /  9.7km/h 13.0mph /  20.9km/h 83% 0.00in /  0mm
04:54 65.6 °F /  18.7 °C 60.6 °F /  15.9 °C 30.09in /  1018.8hPa SW 3.0mph /  4.8km/h 13.0mph /  20.9km/h 84% 0.00in /  0mm
04:59 65.6 °F /  18.7 °C 60.3 °F /  15.7 °C 30.08in /  1018.5hPa SSW 4.0mph /  6.4km/h 17.0mph /  27.4km/h 83% 0.00in /  0mm
05:04 65.6 °F /  18.7 °C 60.3 °F /  15.7 °C 30.09in /  1018.8hPa SSW 3.0mph /  4.8km/h 17.0mph /  27.4km/h 83% 0.00in /  0mm
05:09 65.6 °F /  18.7 °C 60.3 °F /  15.7 °C 30.08in /  1018.5hPa SSW 5.0mph /  8km/h 15.0mph /  24.1km/h 83% 0.00in /  0mm
05:14 65.6 °F /  18.7 °C 60.3 °F /  15.7 °C 30.08in /  1018.5hPa SW 5.0mph /  8km/h 17.0mph /  27.4km/h 83% 0.00in /  0mm
05:19 65.6 °F /  18.7 °C 60.3 °F /  15.7 °C 30.09in /  1018.8hPa SSW 7.0mph /  11.3km/h 17.0mph /  27.4km/h 83% 0.00in /  0mm
05:24 65.6 °F /  18.7 °C 60.3 °F /  15.7 °C 30.09in /  1018.8hPa SSW 6.0mph /  9.7km/h 15.0mph /  24.1km/h 83% 0.00in /  0mm
05:29 65.6 °F /  18.7 °C 60.3 °F /  15.7 °C 30.09in /  1018.8hPa SW 5.0mph /  8km/h 14.0mph /  22.5km/h 83% 0.00in /  0mm
05:39 65.5 °F /  18.6 °C 60.2 °F /  15.7 °C 30.09in /  1018.8hPa SSW 5.0mph /  8km/h 17.0mph /  27.4km/h 83% 0.00in /  0mm
05:44 65.4 °F /  18.6 °C 60.1 °F /  15.6 °C 30.09in /  1018.8hPa SW 3.0mph /  4.8km/h 17.0mph /  27.4km/h 83% 0.00in /  0mm
05:49 65.3 °F /  18.5 °C 60.0 °F /  15.6 °C 30.09in /  1018.8hPa SSW 4.0mph /  6.4km/h 13.0mph /  20.9km/h 83% 0.00in /  0mm
05:54 65.3 °F /  18.5 °C 60.3 °F /  15.7 °C 30.09in /  1018.8hPa SSW 3.0mph /  4.8km/h 11.0mph /  17.7km/h 84% 0.00in /  0mm
05:59 65.2 °F /  18.4 °C 60.2 °F /  15.7 °C 30.09in /  1018.8hPa SSW 7.0mph /  11.3km/h 13.0mph /  20.9km/h 84% 0.00in /  0mm
06:04 65.1 °F /  18.4 °C 60.1 °F /  15.6 °C 30.09in /  1018.8hPa SSW 5.0mph /  8km/h 14.0mph /  22.5km/h 84% 0.00in /  0mm
06:09 65.1 °F /  18.4 °C 60.1 °F /  15.6 °C 30.09in /  1018.8hPa SSW 6.0mph /  9.7km/h 17.0mph /  27.4km/h 84% 0.00in /  0mm
06:14 65.1 °F /  18.4 °C 60.1 °F /  15.6 °C 30.09in /  1018.8hPa SW 5.0mph /  8km/h 17.0mph /  27.4km/h 84% 0.00in /  0mm
06:19 65.1 °F /  18.4 °C 60.1 °F /  15.6 °C 30.09in /  1018.8hPa SSW 5.0mph /  8km/h 16.0mph /  25.7km/h 84% 0.00in /  0mm
06:24 65.1 °F /  18.4 °C 60.1 °F /  15.6 °C 30.09in /  1018.8hPa SSW 5.0mph /  8km/h 15.0mph /  24.1km/h 84% 0.00in /  0mm
06:29 65.1 °F /  18.4 °C 60.1 °F /  15.6 °C 30.09in /  1018.8hPa SSW 4.0mph /  6.4km/h 14.0mph /  22.5km/h 84% 0.00in /  0mm
06:34 65.1 °F /  18.4 °C 60.1 °F /  15.6 °C 30.09in /  1018.8hPa SSW 7.0mph /  11.3km/h 12.0mph /  19.3km/h 84% 0.00in /  0mm
06:39 65.1 °F /  18.4 °C 60.1 °F /  15.6 °C 30.09in /  1018.8hPa SSW 3.0mph /  4.8km/h 12.0mph /  19.3km/h 84% 0.00in /  0mm
06:44 65.1 °F /  18.4 °C 60.1 °F /  15.6 °C 30.09in /  1018.8hPa SW 3.0mph /  4.8km/h 10.0mph /  16.1km/h 84% 0.00in /  0mm
06:49 65.1 °F /  18.4 °C 60.1 °F /  15.6 °C 30.09in /  1018.8hPa SSW 2.0mph /  3.2km/h 10.0mph /  16.1km/h 84% 0.00in /  0mm
06:54 65.1 °F /  18.4 °C 60.1 °F /  15.6 °C 30.09in /  1018.8hPa SSW 2.0mph /  3.2km/h 9.0mph /  14.5km/h 84% 0.00in /  0mm
06:59 65.2 °F /  18.4 °C 60.2 °F /  15.7 °C 30.09in /  1018.8hPa SW 2.0mph /  3.2km/h 9.0mph /  14.5km/h 84% 0.00in /  0mm
07:04 65.2 °F /  18.4 °C 60.2 °F /  15.7 °C 30.09in /  1018.8hPa SW 1.0mph /  1.6km/h 10.0mph /  16.1km/h 84% 0.00in /  0mm
07:09 65.2 °F /  18.4 °C 60.2 °F /  15.7 °C 30.09in /  1018.8hPa Calm   10.0mph /  16.1km/h 84% 0.00in /  0mm
07:14 65.2 °F /  18.4 °C 60.2 °F /  15.7 °C 30.09in /  1018.8hPa SSW 3.0mph /  4.8km/h 10.0mph /  16.1km/h 84% 0.00in /  0mm
07:19 65.3 °F /  18.5 °C 60.3 °F /  15.7 °C 30.09in /  1018.8hPa SSW 2.0mph /  3.2km/h 11.0mph /  17.7km/h 84% 0.00in /  0mm
07:24 65.3 °F /  18.5 °C 60.0 °F /  15.6 °C 30.09in /  1018.8hPa SSW 5.0mph /  8km/h 11.0mph /  17.7km/h 83% 0.00in /  0mm
07:29 65.4 °F /  18.6 °C 60.1 °F /  15.6 °C 30.09in /  1018.8hPa SW 2.0mph /  3.2km/h 12.0mph /  19.3km/h 83% 0.00in /  0mm
07:34 65.5 °F /  18.6 °C 59.9 °F /  15.5 °C 30.08in /  1018.5hPa SSW 3.0mph /  4.8km/h 12.0mph /  19.3km/h 82% 0.00in /  0mm
07:39 65.6 °F /  18.7 °C 60.0 °F /  15.6 °C 30.08in /  1018.5hPa SW 8.0mph /  12.9km/h 16.0mph /  25.7km/h 82% 0.00in /  0mm
07:44 65.7 °F /  18.7 °C 60.1 °F /  15.6 °C 30.08in /  1018.5hPa SW 3.0mph /  4.8km/h 16.0mph /  25.7km/h 82% 0.00in /  0mm
07:49 65.8 °F /  18.8 °C 60.2 °F /  15.7 °C 30.08in /  1018.5hPa SSW 4.0mph /  6.4km/h 15.0mph /  24.1km/h 82% 0.00in /  0mm
07:54 65.8 °F /  18.8 °C 60.2 °F /  15.7 °C 30.09in /  1018.8hPa SW 3.0mph /  4.8km/h 14.0mph /  22.5km/h 82% 0.00in /  0mm
07:59 65.7 °F /  18.7 °C 60.1 °F /  15.6 °C 30.09in /  1018.8hPa SW 8.0mph /  12.9km/h 17.0mph /  27.4km/h 82% 0.00in /  0mm
08:04 65.7 °F /  18.7 °C 60.1 °F /  15.6 °C 30.09in /  1018.8hPa SW 4.0mph /  6.4km/h 17.0mph /  27.4km/h 82% 0.00in /  0mm
08:09 65.8 °F /  18.8 °C 60.2 °F /  15.7 °C 30.09in /  1018.8hPa SW 2.0mph /  3.2km/h 13.0mph /  20.9km/h 82% 0.00in /  0mm
08:14 65.9 °F /  18.8 °C 60.3 °F /  15.7 °C 30.09in /  1018.8hPa SSW 4.0mph /  6.4km/h 18.0mph /  29km/h 82% 0.00in /  0mm
08:19 66.2 °F /  19 °C 60.5 °F /  15.8 °C 30.08in /  1018.5hPa SW 6.0mph /  9.7km/h 18.0mph /  29km/h 82% 0.00in /  0mm
08:24 66.6 °F /  19.2 °C 60.6 °F /  15.9 °C 30.08in /  1018.5hPa SSW 5.0mph /  8km/h 17.0mph /  27.4km/h 81% 0.00in /  0mm
08:29 67.0 °F /  19.4 °C 61.0 °F /  16.1 °C 30.08in /  1018.5hPa SW 8.0mph /  12.9km/h 17.0mph /  27.4km/h 81% 0.00in /  0mm
08:34 67.2 °F /  19.6 °C 61.2 °F /  16.2 °C 30.08in /  1018.5hPa SSW 7.0mph /  11.3km/h 17.0mph /  27.4km/h 81% 0.00in /  0mm
08:44 67.9 °F /  19.9 °C 61.2 °F /  16.2 °C 30.08in /  1018.5hPa SW 8.0mph /  12.9km/h 15.0mph /  24.1km/h 79% 0.00in /  0mm
08:49 68.3 °F /  20.2 °C 61.5 °F /  16.4 °C 30.08in /  1018.5hPa South 7.0mph /  11.3km/h 17.0mph /  27.4km/h 79% 0.00in /  0mm
08:54 68.9 °F /  20.5 °C 61.8 °F /  16.6 °C 30.08in /  1018.5hPa SW 6.0mph /  9.7km/h 17.0mph /  27.4km/h 78% 0.00in /  0mm
08:59 69.4 °F /  20.8 °C 61.9 °F /  16.6 °C 30.08in /  1018.5hPa SSW 5.0mph /  8km/h 17.0mph /  27.4km/h 77% 0.00in /  0mm
09:04 69.3 °F /  20.7 °C 62.2 °F /  16.8 °C 30.08in /  1018.5hPa SSW 6.0mph /  9.7km/h 17.0mph /  27.4km/h 78% 0.00in /  0mm
09:09 69.1 °F /  20.6 °C 61.6 °F /  16.4 °C 30.07in /  1018.2hPa SW 3.0mph /  4.8km/h 17.0mph /  27.4km/h 77% 0.00in /  0mm
09:14 68.9 °F /  20.5 °C 61.4 °F /  16.3 °C 30.07in /  1018.2hPa SW 5.0mph /  8km/h 16.0mph /  25.7km/h 77% 0.00in /  0mm
09:19 69.1 °F /  20.6 °C 61.6 °F /  16.4 °C 30.07in /  1018.2hPa SW 4.0mph /  6.4km/h 21.0mph /  33.8km/h 77% 0.00in /  0mm
09:25 69.4 °F /  20.8 °C 61.5 °F /  16.4 °C 30.07in /  1018.2hPa SSW 6.0mph /  9.7km/h 21.0mph /  33.8km/h 76% 0.00in /  0mm
09:34 70.4 °F /  21.3 °C 62.5 °F /  16.9 °C 30.06in /  1017.8hPa SW 2.0mph /  3.2km/h 15.0mph /  24.1km/h 76% 0.00in /  0mm
09:39 70.7 °F /  21.5 °C 62.0 °F /  16.7 °C 30.06in /  1017.8hPa SSW 8.0mph /  12.9km/h 23.0mph /  37km/h 74% 0.00in /  0mm
09:44 70.6 °F /  21.4 °C 62.7 °F /  17.1 °C 30.06in /  1017.8hPa SSW 5.0mph /  8km/h 23.0mph /  37km/h 76% 0.00in /  0mm
09:49 70.5 °F /  21.4 °C 62.6 °F /  17 °C 30.06in /  1017.8hPa SSW 5.0mph /  8km/h 22.0mph /  35.4km/h 76% 0.00in /  0mm
09:54 70.4 °F /  21.3 °C 62.1 °F /  16.7 °C 30.05in /  1017.5hPa SSW 10.0mph /  16.1km/h 22.0mph /  35.4km/h 75% 0.00in /  0mm
09:59 70.6 °F /  21.4 °C 62.7 °F /  17.1 °C 30.05in /  1017.5hPa SSW 7.0mph /  11.3km/h 22.0mph /  35.4km/h 76% 0.00in /  0mm
10:04 70.9 °F /  21.6 °C 63.0 °F /  17.2 °C 30.05in /  1017.5hPa SSW 5.0mph /  8km/h 18.0mph /  29km/h 76% 0.00in /  0mm
10:09 71.1 °F /  21.7 °C 62.4 °F /  16.9 °C 30.05in /  1017.5hPa SSW 8.0mph /  12.9km/h 16.0mph /  25.7km/h 74% 0.00in /  0mm
10:14 71.2 °F /  21.8 °C 62.9 °F /  17.2 °C 30.05in /  1017.5hPa SW 5.0mph /  8km/h 16.0mph /  25.7km/h 75% 0.00in /  0mm
10:19 71.5 °F /  21.9 °C 63.2 °F /  17.3 °C 30.04in /  1017.2hPa SSW 7.0mph /  11.3km/h 21.0mph /  33.8km/h 75% 0.00in /  0mm
10:24 71.5 °F /  21.9 °C 62.0 °F /  16.7 °C 30.04in /  1017.2hPa SSW 8.0mph /  12.9km/h 21.0mph /  33.8km/h 72% 0.00in /  0mm
10:29 71.6 °F /  22 °C 63.3 °F /  17.4 °C 30.04in /  1017.2hPa SSW 5.0mph /  8km/h 17.0mph /  27.4km/h 75% 0.00in /  0mm
10:35 71.9 °F /  22.2 °C 62.8 °F /  17.1 °C 30.04in /  1017.2hPa SSW 5.0mph /  8km/h 17.0mph /  27.4km/h 73% 0.00in /  0mm
10:44 72.2 °F /  22.3 °C 64.2 °F /  17.9 °C 30.04in /  1017.2hPa SW 5.0mph /  8km/h 23.0mph /  37km/h 76% 0.00in /  0mm
10:49 72.4 °F /  22.4 °C 63.3 °F /  17.4 °C 30.04in /  1017.2hPa SSW 8.0mph /  12.9km/h 18.0mph /  29km/h 73% 0.00in /  0mm
10:54 72.6 °F /  22.6 °C 65.0 °F /  18.3 °C 30.05in /  1017.5hPa SSW 3.0mph /  4.8km/h 18.0mph /  29km/h 77% 0.00in /  0mm
10:59 72.1 °F /  22.3 °C 62.6 °F /  17 °C 30.04in /  1017.2hPa SSW 9.0mph /  14.5km/h 21.0mph /  33.8km/h 72% 0.00in /  0mm
11:04 71.3 °F /  21.8 °C 62.2 °F /  16.8 °C 30.03in /  1016.8hPa SSW 6.0mph /  9.7km/h 21.0mph /  33.8km/h 73% 0.00in /  0mm
11:09 71.0 °F /  21.7 °C 62.3 °F /  16.8 °C 30.03in /  1016.8hPa SW 7.0mph /  11.3km/h 18.0mph /  29km/h 74% 0.00in /  0mm
11:14 71.5 °F /  21.9 °C 62.8 °F /  17.1 °C 30.03in /  1016.8hPa South 7.0mph /  11.3km/h 18.0mph /  29km/h 74% 0.00in /  0mm
11:19 72.1 °F /  22.3 °C 63.4 °F /  17.4 °C 30.03in /  1016.8hPa SW 9.0mph /  14.5km/h 20.0mph /  32.2km/h 74% 0.00in /  0mm
11:24 72.2 °F /  22.3 °C 63.5 °F /  17.5 °C 30.03in /  1016.8hPa SSW 7.0mph /  11.3km/h 20.0mph /  32.2km/h 74% 0.00in /  0mm
11:29 72.9 °F /  22.7 °C 63.7 °F /  17.6 °C 30.03in /  1016.8hPa SSW 7.0mph /  11.3km/h 18.0mph /  29km/h 73% 0.00in /  0mm
11:34 73.5 °F /  23.1 °C 64.3 °F /  17.9 °C 30.03in /  1016.8hPa SW 5.0mph /  8km/h 17.0mph /  27.4km/h 73% 0.00in /  0mm
11:39 74.0 °F /  23.3 °C 64.4 °F /  18 °C 30.03in /  1016.8hPa SSW 7.0mph /  11.3km/h 19.0mph /  30.6km/h 72% 0.00in /  0mm
11:49 74.2 °F /  23.4 °C 65.0 °F /  18.3 °C 30.02in /  1016.5hPa SSW 5.0mph /  8km/h 17.0mph /  27.4km/h 73% 0.00in /  0mm
11:54 73.5 °F /  23.1 °C 63.5 °F /  17.5 °C 30.02in /  1016.5hPa SW 7.0mph /  11.3km/h 18.0mph /  29km/h 71% 0.00in /  0mm
11:59 73.0 °F /  22.8 °C 63.8 °F /  17.7 °C 30.02in /  1016.5hPa SSW 6.0mph /  9.7km/h 18.0mph /  29km/h 73% 0.00in /  0mm
12:04 73.1 °F /  22.8 °C 63.1 °F /  17.3 °C 30.03in /  1016.8hPa SSW 10.0mph /  16.1km/h 22.0mph /  35.4km/h 71% 0.00in /  0mm
12:09 73.6 °F /  23.1 °C 63.6 °F /  17.6 °C 30.03in /  1016.8hPa SW 10.0mph /  16.1km/h 22.0mph /  35.4km/h 71% 0.00in /  0mm
12:14 72.9 °F /  22.7 °C 63.0 °F /  17.2 °C 30.03in /  1016.8hPa SW 8.0mph /  12.9km/h 23.0mph /  37km/h 71% 0.00in /  0mm
12:19 72.2 °F /  22.3 °C 63.1 °F /  17.3 °C 30.03in /  1016.8hPa SW 7.0mph /  11.3km/h 23.0mph /  37km/h 73% 0.00in /  0mm
12:24 72.2 °F /  22.3 °C 63.1 °F /  17.3 °C 30.02in /  1016.5hPa SSW 7.0mph /  11.3km/h 18.0mph /  29km/h 73% 0.00in /  0mm
12:29 73.0 °F /  22.8 °C 64.6 °F /  18.1 °C 30.02in /  1016.5hPa SSW 8.0mph /  12.9km/h 18.0mph /  29km/h 75% 0.00in /  0mm
12:34 73.7 °F /  23.2 °C 64.5 °F /  18.1 °C 30.02in /  1016.5hPa SSW 9.0mph /  14.5km/h 20.0mph /  32.2km/h 73% 0.00in /  0mm
12:39 73.4 °F /  23 °C 64.2 °F /  17.9 °C 30.02in /  1016.5hPa SW 10.0mph /  16.1km/h 22.0mph /  35.4km/h 73% 0.00in /  0mm
12:49 72.6 °F /  22.6 °C 63.5 °F /  17.5 °C 30.02in /  1016.5hPa SW 5.0mph /  8km/h 17.0mph /  27.4km/h 73% 0.00in /  0mm
12:54 72.5 °F /  22.5 °C 64.1 °F /  17.8 °C 30.01in /  1016.1hPa SW 6.0mph /  9.7km/h 15.0mph /  24.1km/h 75% 0.00in /  0mm
12:59 72.3 °F /  22.4 °C 63.9 °F /  17.7 °C 30.01in /  1016.1hPa SSW 7.0mph /  11.3km/h 15.0mph /  24.1km/h 75% 0.00in /  0mm
13:04 73.1 °F /  22.8 °C 63.9 °F /  17.7 °C 30.01in /  1016.1hPa SSW 9.0mph /  14.5km/h 23.0mph /  37km/h 73% 0.00in /  0mm
13:09 74.0 °F /  23.3 °C 64.4 °F /  18 °C 30.01in /  1016.1hPa SSW 8.0mph /  12.9km/h 23.0mph /  37km/h 72% 0.00in /  0mm
13:14 72.9 °F /  22.7 °C 63.0 °F /  17.2 °C 30.01in /  1016.1hPa SW 9.0mph /  14.5km/h 22.0mph /  35.4km/h 71% 0.00in /  0mm
13:19 72.1 °F /  22.3 °C 63.4 °F /  17.4 °C 30.01in /  1016.1hPa SSW 7.0mph /  11.3km/h 22.0mph /  35.4km/h 74% 0.00in /  0mm
13:24 72.0 °F /  22.2 °C 62.9 °F /  17.2 °C 30.02in /  1016.5hPa SW 11.0mph /  17.7km/h 21.0mph /  33.8km/h 73% 0.00in /  0mm
13:29 71.9 °F /  22.2 °C 63.2 °F /  17.3 °C 30.01in /  1016.1hPa SW 6.0mph /  9.7km/h 21.0mph /  33.8km/h 74% 0.00in /  0mm
13:34 72.4 °F /  22.4 °C 63.7 °F /  17.6 °C 30.01in /  1016.1hPa SW 6.0mph /  9.7km/h 21.0mph /  33.8km/h 74% 0.00in /  0mm
13:39 72.9 °F /  22.7 °C 64.1 °F /  17.8 °C 30.00in /  1015.8hPa SW 6.0mph /  9.7km/h 18.0mph /  29km/h 74% 0.00in /  0mm
13:44 72.9 °F /  22.7 °C 63.7 °F /  17.6 °C 30.00in /  1015.8hPa SW 8.0mph /  12.9km/h 17.0mph /  27.4km/h 73% 0.00in /  0mm
13:49 73.0 °F /  22.8 °C 64.2 °F /  17.9 °C 30.00in /  1015.8hPa SW 7.0mph /  11.3km/h 17.0mph /  27.4km/h 74% 0.00in /  0mm
13:54 73.2 °F /  22.9 °C 64.4 °F /  18 °C 30.00in /  1015.8hPa SSW 6.0mph /  9.7km/h 17.0mph /  27.4km/h 74% 0.00in /  0mm
13:59 73.6 °F /  23.1 °C 64.4 °F /  18 °C 29.99in /  1015.5hPa SW 9.0mph /  14.5km/h 20.0mph /  32.2km/h 73% 0.00in /  0mm
14:04 74.2 °F /  23.4 °C 65.8 °F /  18.8 °C 29.98in /  1015.1hPa SSW 5.0mph /  8km/h 20.0mph /  32.2km/h 75% 0.00in /  0mm
14:09 74.6 °F /  23.7 °C 64.6 °F /  18.1 °C 29.98in /  1015.1hPa SSW 7.0mph /  11.3km/h 19.0mph /  30.6km/h 71% 0.00in /  0mm
14:14 74.2 °F /  23.4 °C 64.2 °F /  17.9 °C 29.98in /  1015.1hPa SW 9.0mph /  14.5km/h 19.0mph /  30.6km/h 71% 0.00in /  0mm
14:19 73.8 °F /  23.2 °C 64.6 °F /  18.1 °C 29.97in /  1014.8hPa SSW 7.0mph /  11.3km/h 17.0mph /  27.4km/h 73% 0.00in /  0mm
14:24 73.9 °F /  23.3 °C 65.1 °F /  18.4 °C 29.98in /  1015.1hPa SSW 8.0mph /  12.9km/h 19.0mph /  30.6km/h 74% 0.00in /  0mm
14:29 73.9 °F /  23.3 °C 64.3 °F /  17.9 °C 29.97in /  1014.8hPa SW 7.0mph /  11.3km/h 22.0mph /  35.4km/h 72% 0.00in /  0mm
14:34 74.3 °F /  23.5 °C 65.1 °F /  18.4 °C 29.97in /  1014.8hPa SSW 9.0mph /  14.5km/h 22.0mph /  35.4km/h 73% 0.00in /  0mm
14:39 74.4 °F /  23.6 °C 64.4 °F /  18 °C 29.98in /  1015.1hPa SSW 8.0mph /  12.9km/h 20.0mph /  32.2km/h 71% 0.00in /  0mm
14:44 74.1 °F /  23.4 °C 64.1 °F /  17.8 °C 29.98in /  1015.1hPa SW 7.0mph /  11.3km/h 20.0mph /  32.2km/h 71% 0.00in /  0mm
14:49 73.6 °F /  23.1 °C 64.0 °F /  17.8 °C 29.98in /  1015.1hPa SSW 7.0mph /  11.3km/h 18.0mph /  29km/h 72% 0.00in /  0mm
14:54 73.8 °F /  23.2 °C 64.6 °F /  18.1 °C 29.98in /  1015.1hPa SW 6.0mph /  9.7km/h 18.0mph /  29km/h 73% 0.00in /  0mm
14:59 74.0 °F /  23.3 °C 64.4 °F /  18 °C 29.98in /  1015.1hPa SW 8.0mph /  12.9km/h 17.0mph /  27.4km/h 72% 0.00in /  0mm
15:04 73.6 °F /  23.1 °C 64.0 °F /  17.8 °C 29.98in /  1015.1hPa SW 5.0mph /  8km/h 17.0mph /  27.4km/h 72% 0.00in /  0mm
15:09 73.2 °F /  22.9 °C 64.0 °F /  17.8 °C 29.98in /  1015.1hPa SW 6.0mph /  9.7km/h 19.0mph /  30.6km/h 73% 0.00in /  0mm
15:14 73.5 °F /  23.1 °C 63.9 °F /  17.7 °C 29.97in /  1014.8hPa SSW 8.0mph /  12.9km/h 19.0mph /  30.6km/h 72% 0.00in /  0mm
15:19 73.8 °F /  23.2 °C 64.2 °F /  17.9 °C 29.97in /  1014.8hPa SW 7.0mph /  11.3km/h 19.0mph /  30.6km/h 72% 0.00in /  0mm
15:24 73.7 °F /  23.2 °C 64.1 °F /  17.8 °C 29.98in /  1015.1hPa SW 6.0mph /  9.7km/h 20.0mph /  32.2km/h 72% 0.00in /  0mm
15:29 73.7 °F /  23.2 °C 64.5 °F /  18.1 °C 29.98in /  1015.1hPa SSW 6.0mph /  9.7km/h 20.0mph /  32.2km/h 73% 0.00in /  0mm
15:34 74.0 °F /  23.3 °C 65.2 °F /  18.4 °C 29.99in /  1015.5hPa SW 5.0mph /  8km/h 14.0mph /  22.5km/h 74% 0.00in /  0mm
15:39 74.0 °F /  23.3 °C 64.4 °F /  18 °C 29.98in /  1015.1hPa SW 7.0mph /  11.3km/h 14.0mph /  22.5km/h 72% 0.00in /  0mm
15:44 73.5 °F /  23.1 °C 64.3 °F /  17.9 °C 29.98in /  1015.1hPa SSW 8.0mph /  12.9km/h 18.0mph /  29km/h 73% 0.00in /  0mm
15:50 73.5 °F /  23.1 °C 64.3 °F /  17.9 °C 29.98in /  1015.1hPa SSW 8.0mph /  12.9km/h 19.0mph /  30.6km/h 73% 0.00in /  0mm
15:59 74.1 °F /  23.4 °C 64.9 °F /  18.3 °C 29.99in /  1015.5hPa SW 4.0mph /  6.4km/h 16.0mph /  25.7km/h 73% 0.00in /  0mm
16:04 73.8 °F /  23.2 °C 64.6 °F /  18.1 °C 29.99in /  1015.5hPa SW 6.0mph /  9.7km/h 15.0mph /  24.1km/h 73% 0.00in /  0mm
16:09 73.4 °F /  23 °C 64.6 °F /  18.1 °C 29.98in /  1015.1hPa SSW 6.0mph /  9.7km/h 15.0mph /  24.1km/h 74% 0.00in /  0mm
16:14 73.7 °F /  23.2 °C 65.3 °F /  18.5 °C 29.97in /  1014.8hPa SSW 5.0mph /  8km/h 15.0mph /  24.1km/h 75% 0.00in /  0mm
16:24 74.1 °F /  23.4 °C 64.9 °F /  18.3 °C 29.96in /  1014.4hPa SW 6.0mph /  9.7km/h 18.0mph /  29km/h 73% 0.00in /  0mm
16:29 74.7 °F /  23.7 °C 65.9 °F /  18.8 °C 29.96in /  1014.4hPa SSW 4.0mph /  6.4km/h 18.0mph /  29km/h 74% 0.00in /  0mm
16:35 75.3 °F /  24.1 °C 65.3 °F /  18.5 °C 29.96in /  1014.4hPa SW 8.0mph /  12.9km/h 16.0mph /  25.7km/h 71% 0.00in /  0mm
16:44 74.4 °F /  23.6 °C 64.4 °F /  18 °C 29.95in /  1014.1hPa SSW 8.0mph /  12.9km/h 15.0mph /  24.1km/h 71% 0.00in /  0mm
16:49 73.9 °F /  23.3 °C 64.3 °F /  17.9 °C 29.95in /  1014.1hPa SW 9.0mph /  14.5km/h 17.0mph /  27.4km/h 72% 0.00in /  0mm
16:54 73.6 °F /  23.1 °C 64.4 °F /  18 °C 29.94in /  1013.8hPa SSW 6.0mph /  9.7km/h 17.0mph /  27.4km/h 73% 0.00in /  0mm
16:59 73.5 °F /  23.1 °C 64.3 °F /  17.9 °C 29.94in /  1013.8hPa SSW 8.0mph /  12.9km/h 18.0mph /  29km/h 73% 0.00in /  0mm
17:04 73.9 °F /  23.3 °C 65.1 °F /  18.4 °C 29.94in /  1013.8hPa SSW 6.0mph /  9.7km/h 18.0mph /  29km/h 74% 0.00in /  0mm
17:09 74.5 °F /  23.6 °C 65.3 °F /  18.5 °C 29.94in /  1013.8hPa SW 7.0mph /  11.3km/h 22.0mph /  35.4km/h 73% 0.00in /  0mm
17:14 75.3 °F /  24.1 °C 65.7 °F /  18.7 °C 29.94in /  1013.8hPa SSW 6.0mph /  9.7km/h 22.0mph /  35.4km/h 72% 0.00in /  0mm
17:19 75.6 °F /  24.2 °C 65.1 °F /  18.4 °C 29.94in /  1013.8hPa SSW 10.0mph /  16.1km/h 21.0mph /  33.8km/h 70% 0.00in /  0mm
17:24 75.5 °F /  24.2 °C 65.0 °F /  18.3 °C 29.93in /  1013.4hPa SSW 9.0mph /  14.5km/h 21.0mph /  33.8km/h 70% 0.00in /  0mm
17:29 75.5 °F /  24.2 °C 65.4 °F /  18.6 °C 29.93in /  1013.4hPa SW 10.0mph /  16.1km/h 22.0mph /  35.4km/h 71% 0.00in /  0mm
17:34 75.6 °F /  24.2 °C 65.5 °F /  18.6 °C 29.93in /  1013.4hPa SSW 6.0mph /  9.7km/h 22.0mph /  35.4km/h 71% 0.00in /  0mm
17:39 75.3 °F /  24.1 °C 65.3 °F /  18.5 °C 29.93in /  1013.4hPa SW 7.0mph /  11.3km/h 18.0mph /  29km/h 71% 0.00in /  0mm
17:44 75.2 °F /  24 °C 64.8 °F /  18.2 °C 29.93in /  1013.4hPa SSW 10.0mph /  16.1km/h 21.0mph /  33.8km/h 70% 0.00in /  0mm
17:49 74.9 °F /  23.8 °C 64.9 °F /  18.3 °C 29.92in /  1013.1hPa SSW 9.0mph /  14.5km/h 25.0mph /  40.2km/h 71% 0.00in /  0mm
17:59 74.9 °F /  23.8 °C 65.7 °F /  18.7 °C 29.92in /  1013.1hPa SSW 7.0mph /  11.3km/h 20.0mph /  32.2km/h 73% 0.00in /  0mm
18:04 74.9 °F /  23.8 °C 65.3 °F /  18.5 °C 29.91in /  1012.8hPa SSW 10.0mph /  16.1km/h 20.0mph /  32.2km/h 72% 0.00in /  0mm
18:09 74.8 °F /  23.8 °C 65.2 °F /  18.4 °C 29.92in /  1013.1hPa SW 8.0mph /  12.9km/h 20.0mph /  32.2km/h 72% 0.00in /  0mm
18:14 74.6 °F /  23.7 °C 65.8 °F /  18.8 °C 29.92in /  1013.1hPa SSW 9.0mph /  14.5km/h 20.0mph /  32.2km/h 74% 0.00in /  0mm
18:19 74.2 °F /  23.4 °C 65.4 °F /  18.6 °C 29.92in /  1013.1hPa SW 9.0mph /  14.5km/h 22.0mph /  35.4km/h 74% 0.00in /  0mm
18:24 74.2 °F /  23.4 °C 65.8 °F /  18.8 °C 29.92in /  1013.1hPa SSW 7.0mph /  11.3km/h 22.0mph /  35.4km/h 75% 0.00in /  0mm
18:29 74.1 °F /  23.4 °C 65.3 °F /  18.5 °C 29.92in /  1013.1hPa SSW 9.0mph /  14.5km/h 21.0mph /  33.8km/h 74% 0.00in /  0mm
18:35 74.0 °F /  23.3 °C 65.2 °F /  18.4 °C 29.92in /  1013.1hPa SW 11.0mph /  17.7km/h 22.0mph /  35.4km/h 74% 0.00in /  0mm
18:44 74.1 °F /  23.4 °C 65.7 °F /  18.7 °C 29.92in /  1013.1hPa SSW 5.0mph /  8km/h 16.0mph /  25.7km/h 75% 0.00in /  0mm
18:49 74.2 °F /  23.4 °C 65.4 °F /  18.6 °C 29.92in /  1013.1hPa SSW 7.0mph /  11.3km/h 18.0mph /  29km/h 74% 0.00in /  0mm
18:59 73.9 °F /  23.3 °C 65.1 °F /  18.4 °C 29.92in /  1013.1hPa SSW 5.0mph /  8km/h 26.0mph /  41.8km/h 74% 0.00in /  0mm
19:04 74.0 °F /  23.3 °C 65.2 °F /  18.4 °C 29.92in /  1013.1hPa SSW 10.0mph /  16.1km/h 22.0mph /  35.4km/h 74% 0.00in /  0mm
19:09 74.0 °F /  23.3 °C 65.2 °F /  18.4 °C 29.92in /  1013.1hPa SW 9.0mph /  14.5km/h 22.0mph /  35.4km/h 74% 0.00in /  0mm
19:14 73.9 °F /  23.3 °C 65.1 °F /  18.4 °C 29.93in /  1013.4hPa SW 8.0mph /  12.9km/h 23.0mph /  37km/h 74% 0.00in /  0mm
19:19 73.8 °F /  23.2 °C 65.0 °F /  18.3 °C 29.92in /  1013.1hPa SW 8.0mph /  12.9km/h 23.0mph /  37km/h 74% 0.00in /  0mm
19:24 73.6 °F /  23.1 °C 65.2 °F /  18.4 °C 29.92in /  1013.1hPa SSW 5.0mph /  8km/h 17.0mph /  27.4km/h 75% 0.00in /  0mm
19:34 73.2 °F /  22.9 °C 64.8 °F /  18.2 °C 29.91in /  1012.8hPa SSW 7.0mph /  11.3km/h 17.0mph /  27.4km/h 75% 0.00in /  0mm
19:39 73.0 °F /  22.8 °C 64.6 °F /  18.1 °C 29.91in /  1012.8hPa SSW 6.0mph /  9.7km/h 17.0mph /  27.4km/h 75% 0.00in /  0mm
19:44 72.7 °F /  22.6 °C 64.7 °F /  18.2 °C 29.91in /  1012.8hPa SSW 3.0mph /  4.8km/h 16.0mph /  25.7km/h 76% 0.00in /  0mm
19:49 72.2 °F /  22.3 °C 64.2 °F /  17.9 °C 29.91in /  1012.8hPa SSW 6.0mph /  9.7km/h 16.0mph /  25.7km/h 76% 0.00in /  0mm
19:54 72.0 °F /  22.2 °C 64.0 °F /  17.8 °C 29.91in /  1012.8hPa SW 4.0mph /  6.4km/h 18.0mph /  29km/h 76% 0.00in /  0mm
19:59 71.9 °F /  22.2 °C 64.3 °F /  17.9 °C 29.91in /  1012.8hPa SW 3.0mph /  4.8km/h 18.0mph /  29km/h 77% 0.00in /  0mm
20:04 71.8 °F /  22.1 °C 63.8 °F /  17.7 °C 29.91in /  1012.8hPa SSW 10.0mph /  16.1km/h 23.0mph /  37km/h 76% 0.00in /  0mm
20:09 71.7 °F /  22.1 °C 63.7 °F /  17.6 °C 29.91in /  1012.8hPa SSW 7.0mph /  11.3km/h 23.0mph /  37km/h 76% 0.00in /  0mm
20:14 71.7 °F /  22.1 °C 63.7 °F /  17.6 °C 29.91in /  1012.8hPa SSW 8.0mph /  12.9km/h 22.0mph /  35.4km/h 76% 0.00in /  0mm
20:19 71.6 °F /  22 °C 63.6 °F /  17.6 °C 29.92in /  1013.1hPa SW 8.0mph /  12.9km/h 22.0mph /  35.4km/h 76% 0.00in /  0mm
20:24 71.4 °F /  21.9 °C 63.4 °F /  17.4 °C 29.92in /  1013.1hPa SSW 6.0mph /  9.7km/h 19.0mph /  30.6km/h 76% 0.00in /  0mm
20:29 71.3 °F /  21.8 °C 63.4 °F /  17.4 °C 29.92in /  1013.1hPa SW 4.0mph /  6.4km/h 19.0mph /  30.6km/h 76% 0.00in /  0mm
20:34 71.2 °F /  21.8 °C 63.6 °F /  17.6 °C 29.92in /  1013.1hPa SW 4.0mph /  6.4km/h 16.0mph /  25.7km/h 77% 0.00in /  0mm
20:44 71.0 °F /  21.7 °C 63.4 °F /  17.4 °C 29.92in /  1013.1hPa SW 8.0mph /  12.9km/h 19.0mph /  30.6km/h 77% 0.00in /  0mm
20:49 71.0 °F /  21.7 °C 63.4 °F /  17.4 °C 29.92in /  1013.1hPa SSW 6.0mph /  9.7km/h 19.0mph /  30.6km/h 77% 0.00in /  0mm
20:54 71.0 °F /  21.7 °C 63.4 °F /  17.4 °C 29.92in /  1013.1hPa SW 7.0mph /  11.3km/h 16.0mph /  25.7km/h 77% 0.00in /  0mm
20:59 70.9 °F /  21.6 °C 63.7 °F /  17.6 °C 29.92in /  1013.1hPa SSW 4.0mph /  6.4km/h 16.0mph /  25.7km/h 78% 0.00in /  0mm
21:04 70.8 °F /  21.6 °C 63.6 °F /  17.6 °C 29.92in /  1013.1hPa SSW 3.0mph /  4.8km/h 15.0mph /  24.1km/h 78% 0.00in /  0mm
21:09 70.7 °F /  21.5 °C 63.5 °F /  17.5 °C 29.92in /  1013.1hPa SSW 5.0mph /  8km/h 17.0mph /  27.4km/h 78% 0.00in /  0mm
21:14 70.6 °F /  21.4 °C 63.4 °F /  17.4 °C 29.92in /  1013.1hPa SSW 7.0mph /  11.3km/h 17.0mph /  27.4km/h 78% 0.00in /  0mm
21:19 70.6 °F /  21.4 °C 63.4 °F /  17.4 °C 29.92in /  1013.1hPa SSW 6.0mph /  9.7km/h 19.0mph /  30.6km/h 78% 0.00in /  0mm
21:25 70.6 °F /  21.4 °C 63.4 °F /  17.4 °C 29.92in /  1013.1hPa SSW 6.0mph /  9.7km/h 19.0mph /  30.6km/h 78% 0.00in /  0mm
21:34 70.7 °F /  21.5 °C 63.1 °F /  17.3 °C 29.92in /  1013.1hPa SSW 7.0mph /  11.3km/h 19.0mph /  30.6km/h 77% 0.00in /  0mm
21:39 70.7 °F /  21.5 °C 63.1 °F /  17.3 °C 29.92in /  1013.1hPa SSW 6.0mph /  9.7km/h 19.0mph /  30.6km/h 77% 0.00in /  0mm
21:44 70.8 °F /  21.6 °C 63.2 °F /  17.3 °C 29.92in /  1013.1hPa SSW 6.0mph /  9.7km/h 18.0mph /  29km/h 77% 0.00in /  0mm
21:49 70.8 °F /  21.6 °C 63.2 °F /  17.3 °C 29.91in /  1012.8hPa South 8.0mph /  12.9km/h 20.0mph /  32.2km/h 77% 0.00in /  0mm
21:54 70.8 °F /  21.6 °C 63.2 °F /  17.3 °C 29.92in /  1013.1hPa SSW 8.0mph /  12.9km/h 20.0mph /  32.2km/h 77% 0.00in /  0mm
21:59 70.8 °F /  21.6 °C 63.2 °F /  17.3 °C 29.92in /  1013.1hPa SW 7.0mph /  11.3km/h 19.0mph /  30.6km/h 77% 0.00in /  0mm
22:04 70.7 °F /  21.5 °C 63.5 °F /  17.5 °C 29.92in /  1013.1hPa SSW 8.0mph /  12.9km/h 18.0mph /  29km/h 78% 0.00in /  0mm
22:09 70.9 °F /  21.6 °C 63.7 °F /  17.6 °C 29.92in /  1013.1hPa SSW 6.0mph /  9.7km/h 18.0mph /  29km/h 78% 0.00in /  0mm
22:14 70.9 °F /  21.6 °C 63.7 °F /  17.6 °C 29.92in /  1013.1hPa SSW 4.0mph /  6.4km/h 19.0mph /  30.6km/h 78% 0.00in /  0mm
22:19 70.8 °F /  21.6 °C 63.6 °F /  17.6 °C 29.92in /  1013.1hPa SSW 8.0mph /  12.9km/h 19.0mph /  30.6km/h 78% 0.00in /  0mm
22:24 70.7 °F /  21.5 °C 63.5 °F /  17.5 °C 29.92in /  1013.1hPa SSW 5.0mph /  8km/h 18.0mph /  29km/h 78% 0.00in /  0mm
22:34 70.4 °F /  21.3 °C 63.6 °F /  17.6 °C 29.92in /  1013.1hPa SSW 7.0mph /  11.3km/h 15.0mph /  24.1km/h 79% 0.00in /  0mm
22:39 70.4 °F /  21.3 °C 63.9 °F /  17.7 °C 29.93in /  1013.4hPa SW 7.0mph /  11.3km/h 17.0mph /  27.4km/h 80% 0.00in /  0mm
22:44 70.3 °F /  21.3 °C 63.8 °F /  17.7 °C 29.93in /  1013.4hPa SW 3.0mph /  4.8km/h 17.0mph /  27.4km/h 80% 0.00in /  0mm
22:49 70.3 °F /  21.3 °C 63.8 °F /  17.7 °C 29.93in /  1013.4hPa SSW 8.0mph /  12.9km/h 17.0mph /  27.4km/h 80% 0.00in /  0mm
22:54 70.3 °F /  21.3 °C 63.8 °F /  17.7 °C 29.93in /  1013.4hPa SW 5.0mph /  8km/h 17.0mph /  27.4km/h 80% 0.00in /  0mm
22:59 70.1 °F /  21.2 °C 63.6 °F /  17.6 °C 29.93in /  1013.4hPa SW 5.0mph /  8km/h 14.0mph /  22.5km/h 80% 0.00in /  0mm
23:04 70.1 °F /  21.2 °C 64.0 °F /  17.8 °C 29.93in /  1013.4hPa SSW 5.0mph /  8km/h 17.0mph /  27.4km/h 81% 0.00in /  0mm
23:09 69.8 °F /  21 °C 64.1 °F /  17.8 °C 29.94in /  1013.8hPa SSW 5.0mph /  8km/h 17.0mph /  27.4km/h 82% 0.00in /  0mm
23:14 69.5 °F /  20.8 °C 64.1 °F /  17.8 °C 29.94in /  1013.8hPa SW 5.0mph /  8km/h 15.0mph /  24.1km/h 83% 0.00in /  0mm
23:19 69.3 °F /  20.7 °C 63.9 °F /  17.7 °C 29.94in /  1013.8hPa SW 7.0mph /  11.3km/h 16.0mph /  25.7km/h 83% 0.00in /  0mm
23:24 69.3 °F /  20.7 °C 64.3 °F /  17.9 °C 29.94in /  1013.8hPa SSW 4.0mph /  6.4km/h 16.0mph /  25.7km/h 84% 0.00in /  0mm
23:29 69.2 °F /  20.7 °C 64.2 °F /  17.9 °C 29.94in /  1013.8hPa SW 5.0mph /  8km/h 17.0mph /  27.4km/h 84% 0.00in /  0mm
23:34 69.3 °F /  20.7 °C 64.3 °F /  17.9 °C 29.94in /  1013.8hPa SW 7.0mph /  11.3km/h 17.0mph /  27.4km/h 84% 0.00in /  0mm
23:39 69.3 °F /  20.7 °C 64.3 °F /  17.9 °C 29.94in /  1013.8hPa SSW 8.0mph /  12.9km/h 15.0mph /  24.1km/h 84% 0.00in /  0mm
23:44 69.3 °F /  20.7 °C 64.3 °F /  17.9 °C 29.94in /  1013.8hPa SW 4.0mph /  6.4km/h 16.0mph /  25.7km/h 84% 0.00in /  0mm
23:49 69.3 °F /  20.7 °C 64.3 °F /  17.9 °C 29.94in /  1013.8hPa SW 5.0mph /  8km/h 17.0mph /  27.4km/h 84% 0.00in /  0mm
23:54 69.4 °F /  20.8 °C 64.4 °F /  18 °C 29.94in /  1013.8hPa SSW 5.0mph /  8km/h 17.0mph /  27.4km/h 84% 0.00in /  0mm
23:59 69.4 °F /  20.8 °C 64.0 °F /  17.8 °C 29.94in /  1013.8hPa SSW 6.0mph /  9.7km/h 19.0mph /  30.6km/h 83% 0.00in /  0mm
Westford Weather
Compliments of Weather Underground

 
 
Current Radar Loop:

Copyright © WestfordWeather.net 2007-2014. All rights reserved.